Toronto, Ontario

4:19 AM EDT on July 31, 2016 (GMT -0400)
Toronto-City Centre | | Change Station

Elev 253 ft 43.63 °N, 79.40 °W | Updated 19 minutes ago

Clear
Clear
70 °F
Feels Like 70 °F
N
14
Wind Variable Wind from NE

Today
High -- | Low -- °F
--% Chance of Precip.
Yesterday
High -- | Low -- °F
Precip. -- in
Pressure 30.01 in
Visibility 9.0 miles
Clouds Clear
Dew Point 61 °F
Humidity 73%
Rainfall 0.00 in
Snow Depth Not available.
6:06 AM 8:40 PM
Waning Crescent, 8% visible
METAR CYTZ 310800Z AUTO 05012KT 9SM CLR 21/16 A3000 RMK SLP160 DENSITY ALT 900FT
Pressure 30.01 in
Visibility 9.0 miles
Clouds Clear
Dew Point 61 °F
Humidity 73%
Rainfall 0.00 in
Snow Depth Not available.
6:06 AM 8:40 PM
Waning Crescent, 8% visible
METAR CYTZ 310800Z AUTO 05012KT 9SM CLR 21/16 A3000 RMK SLP160 DENSITY ALT 900FT

10-Day Weather Forecast

Almanac

Astronomy

Jul. 31, 2016 Rise Set
Actual Time
Civil Twilight
Nautical Twilight
Astronomical Twilight
Moon
Length of Visible Light
Length of Day
Tomorrow will be .
, % of the Moon is Illuminated

Today's Extremes

Country Highs Country Lows

Community

WunderPhotos

Upload Photos

1,928,768 photos uploaded!

WunderBlog® & News

Nearby

Air Quality

  Air Quality AQ Index Pollutant
Not available.

Snow Depth

Station Depth Elevation

Earthquake Activity

City Distance Mag. Time & Date
Minimum magnitude displayed is 2.5.

Coastal Water Temperatures

Place Temperature

Stations

Nearby Weather Stations

Station Location Temp. Windchill Dew Point Humidity Wind Precip. Elev Updated Type
                   

Watches & Warnings

There are currently no watches in effect.